BA 2009 sobota
Location Lesná Start Time 11.7.2009 9:35:55
Category MTBO
Distance 117,86 km Ascend 1 809,3 m Descend -1 797,4 m
Total Time 05:54:10 Moving 05:24:47 Stopped 00:29:23
Average Speed 20,0 km/h Fastest Speed 64,2 km/h Slowest Speed 0,1 km/h
Calories 7041 Average HR N/A Max HR N/A
Weather 10 °C Clouds
Equipment
Notes jel jsem s tomášem peškem, fekál poočasí, mrholilo, zima, bahno. Trochu jsem podcenil, co se da objet, takze posledni hodinu jsme uz museli brat jen desitky a dvacitky kolem cile a stejne prijeli moc brzo. Navic jsem pichnul, pena to nespravila, takze jsme pod horou sv. kateriny stejne menili. pak poprvy v SRN jsem zybtecne sjel do udoli do vesnice a museli jsme zpatky nahoru (chyba tak 5-7'), podruhy v SRN tam byla nova hlavni silnice a vubec jsem nechapal, kde jsme - jeli jsme na druhou strannu - 7' chyba. kolem 4. hodiny me trochu zacinali krece, ale magnesium to spravilo a konec celkem OK az na silenej vyjezd v bahne na sberku.. po 1. dnu 5. misto, bedna je celkem daleko, nakejch 20 nebo 30 bodu Mapa ze soboty s postupama (jeli jsme to od JZ směrem na SV)
Splits
Distance (km) Total Time Split Time Split Pace Split Speed Elevation Change (m)
1,00 00:03:17 00:03:17 00:03:17 18,3 13,41
2,00 00:13:54 00:10:37 00:10:37 5,7 -11,61
3,00 00:15:48 00:01:54 00:01:54 31,6 -21,90
4,00 00:17:26 00:01:38 00:01:38 36,7 -29,63
5,00 00:18:47 00:01:21 00:01:21 44,4 -31,31
6,00 00:20:23 00:01:36 00:01:36 37,5 -13,67
7,00 00:21:59 00:01:36 00:01:36 37,5 0,48
8,00 00:24:10 00:02:11 00:02:11 27,5 -43,77
9,00 00:26:34 00:02:24 00:02:24 25,0 -126,12
10,00 00:28:48 00:02:14 00:02:14 26,9 -33,28
11,00 00:30:29 00:01:41 00:01:41 35,6 -13,74
12,00 00:33:31 00:03:02 00:03:02 19,8 21,43
13,00 00:36:53 00:03:22 00:03:22 17,8 35,76
14,00 00:39:20 00:02:27 00:02:27 24,5 -5,14
15,00 00:41:18 00:01:58 00:01:58 30,5 -2,92
16,00 00:44:42 00:03:24 00:03:24 17,6 36,94
17,00 00:46:24 00:01:42 00:01:42 35,3 -35,74
18,00 00:47:34 00:01:10 00:01:10 51,4 -74,41
19,00 00:49:11 00:01:37 00:01:37 37,1 -65,16
20,00 00:51:29 00:02:18 00:02:18 26,1 20,79
21,00 00:54:52 00:03:23 00:03:23 17,7 41,97
22,00 01:03:12 00:08:20 00:08:20 7,2 103,03
23,00 01:08:00 00:04:48 00:04:48 12,5 65,61
24,00 01:10:21 00:02:21 00:02:21 25,5 11,09
25,00 01:12:27 00:02:06 00:02:06 28,6 1,62
26,00 01:14:21 00:01:54 00:01:54 31,6 -30,72
27,00 01:18:22 00:04:01 00:04:01 14,9 30,92
28,00 01:21:06 00:02:44 00:02:44 22,0 -5,85
29,00 01:24:17 00:03:11 00:03:11 18,8 11,26
30,00 01:28:44 00:04:27 00:04:27 13,5 58,69
31,00 01:32:33 00:03:49 00:03:49 15,7 46,58
32,00 01:35:15 00:02:42 00:02:42 22,2 6,70
33,00 01:37:22 00:02:07 00:02:07 28,3 -33,56
34,00 01:38:42 00:01:20 00:01:20 45,0 -40,18
35,00 01:44:28 00:05:46 00:05:46 10,4 56,58
36,00 01:46:27 00:01:59 00:01:59 30,3 -15,41
37,00 01:47:52 00:01:25 00:01:25 42,4 -44,50
38,00 01:50:51 00:02:59 00:02:59 20,1 32,34
39,00 01:53:45 00:02:54 00:02:54 20,7 8,05
40,00 01:55:59 00:02:14 00:02:14 26,9 -33,68
41,00 01:58:17 00:02:18 00:02:18 26,1 15,29
42,00 02:01:10 00:02:53 00:02:53 20,8 26,18
43,00 02:03:19 00:02:09 00:02:09 27,9 -1,63
44,00 02:05:12 00:01:53 00:01:53 31,9 -0,38
45,00 02:07:33 00:02:21 00:02:21 25,5 -14,67
46,00 02:10:13 00:02:40 00:02:40 22,5 13,63
47,00 02:12:34 00:02:21 00:02:21 25,5 15,76
48,00 02:16:24 00:03:50 00:03:50 15,7 19,27
49,00 02:18:36 00:02:12 00:02:12 27,3 -50,09
50,00 02:20:46 00:02:10 00:02:10 27,7 -51,22
51,00 02:22:55 00:02:09 00:02:09 27,9 -26,19
52,00 02:26:46 00:03:51 00:03:51 15,6 37,14
53,00 02:32:14 00:05:28 00:05:28 11,0 65,14
54,00 02:37:02 00:04:48 00:04:48 12,5 -48,36
55,00 02:39:17 00:02:15 00:02:15 26,7 -39,36
56,00 02:42:17 00:03:00 00:03:00 20,0 -14,27
57,00 02:44:28 00:02:11 00:02:11 27,5 13,72
58,00 02:47:30 00:03:02 00:03:02 19,8 -25,63
59,00 02:50:05 00:02:35 00:02:35 23,2 -26,22
60,00 02:53:17 00:03:12 00:03:12 18,8 34,77
61,00 02:54:50 00:01:33 00:01:33 38,7 -30,75
62,00 02:58:23 00:03:33 00:03:33 16,9 40,10
63,00 03:02:23 00:04:00 00:04:00 15,0 51,92
64,00 03:05:03 00:02:40 00:02:40 22,5 22,02
65,00 03:07:25 00:02:22 00:02:22 25,4 -2,00
66,00 03:09:37 00:02:12 00:02:12 27,3 -17,10
67,00 03:12:29 00:02:52 00:02:52 20,9 -33,13
68,00 03:15:24 00:02:55 00:02:55 20,6 -37,00
69,00 03:17:48 00:02:24 00:02:24 25,0 -52,37
70,00 03:19:54 00:02:06 00:02:06 28,6 -21,01
71,00 03:21:46 00:01:52 00:01:52 32,1 -12,73
72,00 03:25:36 00:03:50 00:03:50 15,7 -8,00
73,00 03:27:27 00:01:51 00:01:51 32,4 -29,23
74,00 03:29:59 00:02:32 00:02:32 23,7 -15,33
75,00 03:31:38 00:01:39 00:01:39 36,4 -7,55
76,00 03:33:07 00:01:29 00:01:29 40,4 -20,52
77,00 03:34:31 00:01:24 00:01:24 42,9 -31,15
78,00 03:35:59 00:01:28 00:01:28 40,9 -27,94
79,00 03:37:52 00:01:53 00:01:53 31,9 -9,60
80,00 03:41:36 00:03:44 00:03:44 16,1 -14,93
81,00 03:44:34 00:02:58 00:02:58 20,2 -1,25
82,00 03:46:40 00:02:06 00:02:06 28,6 17,30
83,00 03:48:44 00:02:04 00:02:04 29,0 -2,05
84,00 03:51:08 00:02:24 00:02:24 25,0 13,77
85,00 03:56:44 00:05:36 00:05:36 10,7 111,28
86,00 04:01:54 00:05:10 00:05:10 11,6 49,14
87,00 04:06:46 00:04:52 00:04:52 12,3 50,91
88,00 04:08:27 00:01:41 00:01:41 35,6 -56,65
89,00 04:10:29 00:02:02 00:02:02 29,5 -3,88
90,00 04:14:49 00:04:20 00:04:20 13,8 63,38
91,00 04:21:07 00:06:18 00:06:18 9,5 64,73
92,00 04:22:46 00:01:39 00:01:39 36,4 -28,46
93,00 04:25:34 00:02:48 00:02:48 21,4 20,10
94,00 04:28:31 00:02:57 00:02:57 20,3 -17,11
95,00 04:30:39 00:02:08 00:02:08 28,1 -5,06
96,00 04:33:11 00:02:32 00:02:32 23,7 12,62
97,00 04:35:22 00:02:11 00:02:11 27,5 -21,55
98,00 04:37:39 00:02:17 00:02:17 26,3 -16,20
99,00 04:42:16 00:04:37 00:04:37 13,0 14,75
100,00 04:47:02 00:04:46 00:04:46 12,6 -38,11
101,00 04:49:16 00:02:14 00:02:14 26,9 -50,44
102,00 04:51:30 00:02:14 00:02:14 26,9 -63,66
103,00 05:00:12 00:08:42 00:08:42 6,9 38,05
104,00 05:06:06 00:05:54 00:05:54 10,2 89,91
105,00 05:09:07 00:03:01 00:03:01 19,9 9,40
106,00 05:10:53 00:01:46 00:01:46 34,0 -20,41
107,00 05:13:22 00:02:29 00:02:29 24,2 19,68
108,00 05:15:51 00:02:29 00:02:29 24,2 10,33
109,00 05:19:09 00:03:18 00:03:18 18,2 30,64
110,00 05:23:16 00:04:07 00:04:07 14,6 -2,18
111,00 05:25:24 00:02:08 00:02:08 28,1 -15,23
112,00 05:29:07 00:03:43 00:03:43 16,1 40,39
113,00 05:33:26 00:04:19 00:04:19 13,9 -8,06
114,00 05:41:14 00:07:48 00:07:48 7,7 88,27
115,00 05:46:06 00:04:52 00:04:52 12,3 42,77
116,00 05:48:44 00:02:38 00:02:38 22,8 -9,65
117,00 05:51:56 00:03:12 00:03:12 18,8 17,94